< Typhoon 201411 2014 Season Typhoon 201413 >
Typhoon 201412 (NAKRI)
General InformationTrack Information on Google MapsDetailed Wind InformationForecast History on Google MapsAccess Analytics MapList of All Images || NewsDisaster Info.WeblogTrackbackTyphoon FrontTwiphoonTyphoon Now!Typhoon ImaginationDisaster Info. XMLResourceGoogle EarthGE AnimationAtom FeedGeoJSON
Detalied Best Track (Time Zone = UTC)
Year Month Day Hour Lat. Long. Pressure (hPa) Wind (kt) Class Image Chart
2014 7 28 06 17.4 133.6 998 0 2 Image Chart
2014 7 28 12 17.9 132.7 998 0 2 Image Chart
2014 7 28 18 18.1 131.9 998 0 2 Image Chart
2014 7 29 00 18.3 131.2 996 0 2 Image Chart
2014 7 29 06 18.3 130.4 996 0 2 Image Chart
2014 7 29 12 18.8 130.2 994 35 3 Image Chart
2014 7 29 18 19.4 130.1 994 35 3 Image Chart
2014 7 30 00 21.0 129.9 994 35 3 Image Chart
2014 7 30 06 22.3 129.2 992 35 3 Image Chart
2014 7 30 12 23.3 128.5 990 40 3 Image Chart
2014 7 30 18 23.9 127.7 990 40 3 Image Chart
2014 7 31 00 24.4 127.1 990 40 3 Image Chart
2014 7 31 06 25.3 127.1 985 40 3 Image Chart
2014 7 31 12 25.9 127.1 985 45 3 Image Chart
2014 7 31 18 27.6 128.2 980 50 4 Image Chart
2014 8 1 00 28.5 127.3 980 55 4 Image Chart
2014 8 1 06 29.3 126.3 980 55 4 Image Chart
2014 8 1 12 30.2 125.5 980 55 4 Image Chart
2014 8 1 18 31.3 125.1 980 50 4 Image Chart
2014 8 2 00 31.9 124.9 980 50 4 Image Chart
2014 8 2 06 32.4 124.6 980 50 4 Image Chart
2014 8 2 12 33.3 124.9 980 45 3 Image Chart
2014 8 2 18 34.2 124.9 985 40 3 Image Chart
2014 8 3 00 34.9 125.3 990 35 3 Image Chart
2014 8 3 06 35.2 125.4 992 0 2 Image Chart
2014 8 3 12 35.5 125.6 994 0 2 Image Chart
2014 8 3 18 35.7 126.1 996 0 2 Image Chart
2014 8 4 00 35.9 126.7 998 0 2 Image Chart
Japan Meteorological Agency Best Track Data | Correction Date : 2014-09-17
< Typhoon 201411 2014 Season Typhoon 201413 >

Help